Terminal Aerodrome Forecast
Issued by NWS Grand Forks, ND

Home | Current Version | Previous Version | Text Only | Print | Product List | Glossary Off
Versions: 1 2 3 4 5 6 7 8 9 10 11 12 13 14 15 16 17 18 19 20 21 22

000
FTUS43 KFGF 182333
TAFFAR
TAF
KFAR 182333Z 1900/1924 15012KT P6SM SCT140
     FM190300 14010KT P6SM SCT040
     FM190500 14010KT P6SM BKN010
     FM190700 15011KT P6SM BKN008
     FM190900 15014KT 5SM BR OVC003
     FM191700 15022G30KT P6SM BKN050
     FM192100 15024G34KT P6SM SCT130
     FM192300 15018G27KT P6SM VCTS BKN090CB=

USA.gov is the U.S. government's official web portal to all federal, state and local government web resources and services.